sensor_id;sensor_type;location;lat;lon;timestamp;P1;durP1;ratioP1;P2;durP2;ratioP2
40052;SDS011;25758;48.200;16.338;2023-04-25T00:00:15;2.30;;;0.80;;
40052;SDS011;25758;48.200;16.338;2023-04-25T00:02:41;6.63;;;2.72;;
40052;SDS011;25758;48.200;16.338;2023-04-25T00:05:07;6.40;;;0.85;;
40052;SDS011;25758;48.200;16.338;2023-04-25T00:07:33;3.38;;;0.55;;
40052;SDS011;25758;48.200;16.338;2023-04-25T00:09:59;1.60;;;0.60;;
40052;SDS011;25758;48.200;16.338;2023-04-25T00:12:25;3.35;;;0.70;;
40052;SDS011;25758;48.200;16.338;2023-04-25T00:14:53;1.42;;;0.65;;
40052;SDS011;25758;48.200;16.338;2023-04-25T00:17:22;5.55;;;0.95;;
40052;SDS011;25758;48.200;16.338;2023-04-25T00:19:49;2.40;;;0.65;;
40052;SDS011;25758;48.200;16.338;2023-04-25T00:22:15;1.42;;;0.50;;
40052;SDS011;25758;48.200;16.338;2023-04-25T00:24:42;1.83;;;0.85;;
40052;SDS011;25758;48.200;16.338;2023-04-25T00:27:08;1.50;;;0.75;;
40052;SDS011;25758;48.200;16.338;2023-04-25T00:29:33;1.42;;;0.60;;
40052;SDS011;25758;48.200;16.338;2023-04-25T00:31:59;1.33;;;0.40;;
40052;SDS011;25758;48.200;16.338;2023-04-25T00:34:25;1.98;;;0.75;;
40052;SDS011;25758;48.200;16.338;2023-04-25T00:36:51;1.88;;;0.88;;
40052;SDS011;25758;48.200;16.338;2023-04-25T00:39:16;1.88;;;0.50;;
40052;SDS011;25758;48.200;16.338;2023-04-25T00:41:42;2.40;;;0.40;;
40052;SDS011;25758;48.200;16.338;2023-04-25T00:44:09;1.48;;;0.50;;
40052;SDS011;25758;48.200;16.338;2023-04-25T00:46:37;2.15;;;0.90;;
40052;SDS011;25758;48.200;16.338;2023-04-25T00:49:04;1.83;;;0.60;;
40052;SDS011;25758;48.200;16.338;2023-04-25T00:51:30;2.55;;;0.68;;
40052;SDS011;25758;48.200;16.338;2023-04-25T00:53:57;5.00;;;0.70;;
40052;SDS011;25758;48.200;16.338;2023-04-25T00:56:23;3.20;;;0.68;;
40052;SDS011;25758;48.200;16.338;2023-04-25T00:58:49;1.15;;;0.70;;
40052;SDS011;25758;48.200;16.338;2023-04-25T01:01:18;2.40;;;0.90;;
40052;SDS011;25758;48.200;16.338;2023-04-25T01:03:43;1.40;;;0.80;;
40052;SDS011;25758;48.200;16.338;2023-04-25T01:06:11;3.33;;;0.90;;
40052;SDS011;25758;48.200;16.338;2023-04-25T01:08:38;3.20;;;0.85;;
40052;SDS011;25758;48.200;16.338;2023-04-25T01:11:04;1.92;;;0.75;;
40052;SDS011;25758;48.200;16.338;2023-04-25T01:13:30;1.77;;;0.52;;
40052;SDS011;25758;48.200;16.338;2023-04-25T01:15:57;4.68;;;0.77;;
40052;SDS011;25758;48.200;16.338;2023-04-25T01:18:24;2.40;;;0.80;;
40052;SDS011;25758;48.200;16.338;2023-04-25T01:20:53;1.98;;;0.82;;
40052;SDS011;25758;48.200;16.338;2023-04-25T01:23:20;2.25;;;1.23;;
40052;SDS011;25758;48.200;16.338;2023-04-25T01:25:46;4.40;;;1.13;;
40052;SDS011;25758;48.200;16.338;2023-04-25T01:28:13;2.88;;;1.20;;
40052;SDS011;25758;48.200;16.338;2023-04-25T01:30:39;1.65;;;0.77;;
40052;SDS011;25758;48.200;16.338;2023-04-25T01:33:06;1.95;;;0.77;;
40052;SDS011;25758;48.200;16.338;2023-04-25T01:35:33;2.45;;;0.80;;
40052;SDS011;25758;48.200;16.338;2023-04-25T01:37:59;3.40;;;0.85;;
40052;SDS011;25758;48.200;16.338;2023-04-25T01:40:25;1.90;;;0.80;;
40052;SDS011;25758;48.200;16.338;2023-04-25T01:42:52;1.90;;;0.80;;
40052;SDS011;25758;48.200;16.338;2023-04-25T01:45:18;1.77;;;0.85;;
40052;SDS011;25758;48.200;16.338;2023-04-25T01:47:44;5.05;;;0.90;;
40052;SDS011;25758;48.200;16.338;2023-04-25T01:50:14;2.28;;;1.00;;
40052;SDS011;25758;48.200;16.338;2023-04-25T01:52:41;2.75;;;0.85;;
40052;SDS011;25758;48.200;16.338;2023-04-25T01:55:07;2.83;;;0.70;;
40052;SDS011;25758;48.200;16.338;2023-04-25T01:57:33;2.30;;;0.68;;
40052;SDS011;25758;48.200;16.338;2023-04-25T02:00:00;1.08;;;0.50;;
40052;SDS011;25758;48.200;16.338;2023-04-25T02:02:27;1.77;;;1.00;;
40052;SDS011;25758;48.200;16.338;2023-04-25T02:04:53;3.40;;;0.70;;
40052;SDS011;25758;48.200;16.338;2023-04-25T02:07:19;3.08;;;0.95;;
40052;SDS011;25758;48.200;16.338;2023-04-25T02:09:45;2.03;;;1.00;;
40052;SDS011;25758;48.200;16.338;2023-04-25T02:12:11;4.75;;;1.10;;
40052;SDS011;25758;48.200;16.338;2023-04-25T02:14:37;2.08;;;1.05;;
40052;SDS011;25758;48.200;16.338;2023-04-25T02:17:02;1.95;;;0.77;;
40052;SDS011;25758;48.200;16.338;2023-04-25T02:19:28;3.72;;;0.80;;
40052;SDS011;25758;48.200;16.338;2023-04-25T02:21:54;2.80;;;1.10;;
40052;SDS011;25758;48.200;16.338;2023-04-25T02:24:20;1.90;;;1.23;;
40052;SDS011;25758;48.200;16.338;2023-04-25T02:26:45;1.48;;;0.80;;
40052;SDS011;25758;48.200;16.338;2023-04-25T02:29:11;3.05;;;1.00;;
40052;SDS011;25758;48.200;16.338;2023-04-25T02:31:37;2.90;;;1.00;;
40052;SDS011;25758;48.200;16.338;2023-04-25T02:34:03;3.22;;;1.00;;
40052;SDS011;25758;48.200;16.338;2023-04-25T02:36:29;3.25;;;1.25;;
40052;SDS011;25758;48.200;16.338;2023-04-25T02:38:57;1.60;;;1.02;;
40052;SDS011;25758;48.200;16.338;2023-04-25T02:41:22;3.58;;;0.77;;
40052;SDS011;25758;48.200;16.338;2023-04-25T02:43:48;3.33;;;1.20;;
40052;SDS011;25758;48.200;16.338;2023-04-25T02:46:14;1.80;;;1.05;;
40052;SDS011;25758;48.200;16.338;2023-04-25T02:48:39;1.50;;;1.02;;
40052;SDS011;25758;48.200;16.338;2023-04-25T02:51:05;3.30;;;1.20;;
40052;SDS011;25758;48.200;16.338;2023-04-25T02:53:31;2.35;;;1.30;;
40052;SDS011;25758;48.200;16.338;2023-04-25T02:55:56;3.13;;;1.33;;
40052;SDS011;25758;48.200;16.338;2023-04-25T02:58:24;1.95;;;0.93;;
40052;SDS011;25758;48.200;16.338;2023-04-25T03:00:49;2.90;;;1.13;;
40052;SDS011;25758;48.200;16.338;2023-04-25T03:03:15;2.08;;;0.90;;
40052;SDS011;25758;48.200;16.338;2023-04-25T03:05:43;3.28;;;1.30;;
40052;SDS011;25758;48.200;16.338;2023-04-25T03:08:09;1.40;;;0.77;;
40052;SDS011;25758;48.200;16.338;2023-04-25T03:10:34;2.60;;;1.15;;
40052;SDS011;25758;48.200;16.338;2023-04-25T03:13:00;5.75;;;1.00;;
40052;SDS011;25758;48.200;16.338;2023-04-25T03:15:25;1.70;;;0.70;;
40052;SDS011;25758;48.200;16.338;2023-04-25T03:17:51;1.77;;;1.08;;
40052;SDS011;25758;48.200;16.338;2023-04-25T03:20:17;4.35;;;1.20;;
40052;SDS011;25758;48.200;16.338;2023-04-25T03:22:42;3.47;;;0.93;;
40052;SDS011;25758;48.200;16.338;2023-04-25T03:25:09;4.07;;;1.50;;
40052;SDS011;25758;48.200;16.338;2023-04-25T03:27:35;3.83;;;1.98;;
40052;SDS011;25758;48.200;16.338;2023-04-25T03:30:00;8.57;;;3.95;;
40052;SDS011;25758;48.200;16.338;2023-04-25T03:32:26;4.97;;;2.35;;
40052;SDS011;25758;48.200;16.338;2023-04-25T03:34:52;3.00;;;1.55;;
40052;SDS011;25758;48.200;16.338;2023-04-25T03:37:17;2.08;;;1.08;;
40052;SDS011;25758;48.200;16.338;2023-04-25T03:39:43;3.42;;;1.95;;
40052;SDS011;25758;48.200;16.338;2023-04-25T03:42:08;3.05;;;1.25;;
40052;SDS011;25758;48.200;16.338;2023-04-25T03:44:34;1.95;;;0.88;;
40052;SDS011;25758;48.200;16.338;2023-04-25T03:47:00;3.60;;;1.70;;
40052;SDS011;25758;48.200;16.338;2023-04-25T03:49:25;3.17;;;0.93;;
40052;SDS011;25758;48.200;16.338;2023-04-25T03:51:51;4.75;;;1.58;;
40052;SDS011;25758;48.200;16.338;2023-04-25T03:54:17;3.40;;;1.77;;
40052;SDS011;25758;48.200;16.338;2023-04-25T03:56:42;2.80;;;1.30;;
40052;SDS011;25758;48.200;16.338;2023-04-25T03:59:08;3.47;;;1.08;;
40052;SDS011;25758;48.200;16.338;2023-04-25T04:01:33;2.67;;;1.08;;
40052;SDS011;25758;48.200;16.338;2023-04-25T04:04:00;2.00;;;1.10;;
40052;SDS011;25758;48.200;16.338;2023-04-25T04:06:25;2.72;;;1.58;;
40052;SDS011;25758;48.200;16.338;2023-04-25T04:08:51;1.90;;;1.13;;
40052;SDS011;25758;48.200;16.338;2023-04-25T04:11:17;9.35;;;1.45;;
40052;SDS011;25758;48.200;16.338;2023-04-25T04:13:42;7.93;;;1.80;;
40052;SDS011;25758;48.200;16.338;2023-04-25T04:16:08;5.00;;;2.25;;
40052;SDS011;25758;48.200;16.338;2023-04-25T04:18:34;4.03;;;1.65;;
40052;SDS011;25758;48.200;16.338;2023-04-25T04:21:00;2.50;;;1.30;;
40052;SDS011;25758;48.200;16.338;2023-04-25T04:23:26;2.10;;;1.42;;
40052;SDS011;25758;48.200;16.338;2023-04-25T04:25:53;2.92;;;1.63;;
40052;SDS011;25758;48.200;16.338;2023-04-25T04:28:19;3.50;;;1.50;;
40052;SDS011;25758;48.200;16.338;2023-04-25T04:30:45;4.53;;;1.75;;
40052;SDS011;25758;48.200;16.338;2023-04-25T04:33:11;6.15;;;1.08;;
40052;SDS011;25758;48.200;16.338;2023-04-25T04:35:37;4.00;;;1.67;;
40052;SDS011;25758;48.200;16.338;2023-04-25T04:38:03;1.85;;;1.33;;
40052;SDS011;25758;48.200;16.338;2023-04-25T04:40:29;2.75;;;1.25;;
40052;SDS011;25758;48.200;16.338;2023-04-25T04:42:56;2.20;;;1.30;;
40052;SDS011;25758;48.200;16.338;2023-04-25T04:45:22;5.10;;;1.42;;
40052;SDS011;25758;48.200;16.338;2023-04-25T04:47:49;1.48;;;1.05;;
40052;SDS011;25758;48.200;16.338;2023-04-25T04:50:15;2.70;;;1.48;;
40052;SDS011;25758;48.200;16.338;2023-04-25T04:52:41;4.25;;;1.80;;
40052;SDS011;25758;48.200;16.338;2023-04-25T04:55:07;4.82;;;2.28;;
40052;SDS011;25758;48.200;16.338;2023-04-25T04:57:33;3.28;;;1.38;;
40052;SDS011;25758;48.200;16.338;2023-04-25T04:59:59;4.40;;;1.67;;
40052;SDS011;25758;48.200;16.338;2023-04-25T05:02:26;4.88;;;1.40;;
40052;SDS011;25758;48.200;16.338;2023-04-25T05:04:52;4.70;;;1.75;;
40052;SDS011;25758;48.200;16.338;2023-04-25T05:07:18;2.72;;;1.48;;
40052;SDS011;25758;48.200;16.338;2023-04-25T05:09:44;3.80;;;1.83;;
40052;SDS011;25758;48.200;16.338;2023-04-25T05:12:09;4.55;;;1.58;;
40052;SDS011;25758;48.200;16.338;2023-04-25T05:14:35;3.40;;;1.80;;
40052;SDS011;25758;48.200;16.338;2023-04-25T05:17:00;3.47;;;1.67;;
40052;SDS011;25758;48.200;16.338;2023-04-25T05:19:29;2.75;;;1.58;;
40052;SDS011;25758;48.200;16.338;2023-04-25T05:21:55;3.55;;;1.85;;
40052;SDS011;25758;48.200;16.338;2023-04-25T05:24:21;3.83;;;1.48;;
40052;SDS011;25758;48.200;16.338;2023-04-25T05:26:46;4.95;;;2.42;;
40052;SDS011;25758;48.200;16.338;2023-04-25T05:29:12;5.25;;;2.90;;
40052;SDS011;25758;48.200;16.338;2023-04-25T05:31:37;4.85;;;2.97;;
40052;SDS011;25758;48.200;16.338;2023-04-25T05:34:03;6.15;;;2.70;;
40052;SDS011;25758;48.200;16.338;2023-04-25T05:36:29;4.57;;;1.77;;
40052;SDS011;25758;48.200;16.338;2023-04-25T05:38:56;4.80;;;1.88;;
40052;SDS011;25758;48.200;16.338;2023-04-25T05:41:21;5.97;;;2.08;;
40052;SDS011;25758;48.200;16.338;2023-04-25T05:43:47;3.20;;;1.83;;
40052;SDS011;25758;48.200;16.338;2023-04-25T05:46:14;5.47;;;1.40;;
40052;SDS011;25758;48.200;16.338;2023-04-25T05:48:42;8.55;;;2.65;;
40052;SDS011;25758;48.200;16.338;2023-04-25T05:51:07;5.15;;;1.83;;
40052;SDS011;25758;48.200;16.338;2023-04-25T05:53:33;7.72;;;1.88;;
40052;SDS011;25758;48.200;16.338;2023-04-25T05:56:00;3.85;;;1.85;;
40052;SDS011;25758;48.200;16.338;2023-04-25T05:58:26;3.60;;;2.05;;
40052;SDS011;25758;48.200;16.338;2023-04-25T06:00:51;6.00;;;2.00;;
40052;SDS011;25758;48.200;16.338;2023-04-25T06:03:17;2.75;;;1.73;;
40052;SDS011;25758;48.200;16.338;2023-04-25T06:05:43;3.22;;;1.80;;
40052;SDS011;25758;48.200;16.338;2023-04-25T06:08:09;4.32;;;1.80;;
40052;SDS011;25758;48.200;16.338;2023-04-25T06:10:38;3.65;;;2.25;;
40052;SDS011;25758;48.200;16.338;2023-04-25T06:13:04;8.52;;;4.35;;
40052;SDS011;25758;48.200;16.338;2023-04-25T06:15:30;6.90;;;3.60;;
40052;SDS011;25758;48.200;16.338;2023-04-25T06:17:57;4.35;;;1.98;;
40052;SDS011;25758;48.200;16.338;2023-04-25T06:20:23;3.67;;;1.55;;
40052;SDS011;25758;48.200;16.338;2023-04-25T06:22:49;4.63;;;1.83;;
40052;SDS011;25758;48.200;16.338;2023-04-25T06:25:16;4.22;;;1.63;;
40052;SDS011;25758;48.200;16.338;2023-04-25T06:27:42;4.78;;;1.58;;
40052;SDS011;25758;48.200;16.338;2023-04-25T06:30:08;7.43;;;1.35;;
40052;SDS011;25758;48.200;16.338;2023-04-25T06:32:34;2.42;;;1.25;;
40052;SDS011;25758;48.200;16.338;2023-04-25T06:35:00;3.05;;;1.27;;
40052;SDS011;25758;48.200;16.338;2023-04-25T06:37:26;2.72;;;1.60;;
40052;SDS011;25758;48.200;16.338;2023-04-25T06:39:52;2.78;;;1.20;;
40052;SDS011;25758;48.200;16.338;2023-04-25T06:42:18;2.28;;;1.38;;
40052;SDS011;25758;48.200;16.338;2023-04-25T06:44:43;3.05;;;1.33;;
40052;SDS011;25758;48.200;16.338;2023-04-25T06:47:09;4.40;;;1.55;;
40052;SDS011;25758;48.200;16.338;2023-04-25T06:49:35;1.88;;;1.20;;
40052;SDS011;25758;48.200;16.338;2023-04-25T06:52:00;4.35;;;1.63;;
40052;SDS011;25758;48.200;16.338;2023-04-25T06:54:26;4.55;;;1.42;;
40052;SDS011;25758;48.200;16.338;2023-04-25T06:56:54;2.92;;;1.52;;
40052;SDS011;25758;48.200;16.338;2023-04-25T06:59:20;3.88;;;1.55;;
40052;SDS011;25758;48.200;16.338;2023-04-25T07:01:46;3.20;;;1.83;;
40052;SDS011;25758;48.200;16.338;2023-04-25T07:04:12;3.33;;;1.10;;
40052;SDS011;25758;48.200;16.338;2023-04-25T07:06:37;6.20;;;2.03;;
40052;SDS011;25758;48.200;16.338;2023-04-25T07:09:07;2.60;;;1.20;;
40052;SDS011;25758;48.200;16.338;2023-04-25T07:11:34;2.30;;;1.58;;
40052;SDS011;25758;48.200;16.338;2023-04-25T07:14:00;4.78;;;1.65;;
40052;SDS011;25758;48.200;16.338;2023-04-25T07:16:26;3.78;;;1.75;;
40052;SDS011;25758;48.200;16.338;2023-04-25T07:18:52;2.95;;;1.58;;
40052;SDS011;25758;48.200;16.338;2023-04-25T07:21:17;2.38;;;1.15;;
40052;SDS011;25758;48.200;16.338;2023-04-25T07:23:43;1.73;;;0.90;;
40052;SDS011;25758;48.200;16.338;2023-04-25T07:26:08;10.55;;;2.15;;
40052;SDS011;25758;48.200;16.338;2023-04-25T07:28:34;4.55;;;2.28;;
40052;SDS011;25758;48.200;16.338;2023-04-25T07:31:00;3.72;;;1.90;;
40052;SDS011;25758;48.200;16.338;2023-04-25T07:33:25;2.92;;;1.48;;
40052;SDS011;25758;48.200;16.338;2023-04-25T07:35:52;4.57;;;1.08;;
40052;SDS011;25758;48.200;16.338;2023-04-25T07:38:17;33.50;;;19.88;;
40052;SDS011;25758;48.200;16.338;2023-04-25T07:40:43;35.22;;;20.25;;
40052;SDS011;25758;48.200;16.338;2023-04-25T07:43:09;22.42;;;11.10;;
40052;SDS011;25758;48.200;16.338;2023-04-25T07:45:37;3.42;;;1.60;;
40052;SDS011;25758;48.200;16.338;2023-04-25T07:48:02;3.85;;;1.40;;
40052;SDS011;25758;48.200;16.338;2023-04-25T07:50:28;3.58;;;1.02;;
40052;SDS011;25758;48.200;16.338;2023-04-25T07:52:54;5.10;;;1.50;;
40052;SDS011;25758;48.200;16.338;2023-04-25T07:55:20;1.92;;;0.93;;
40052;SDS011;25758;48.200;16.338;2023-04-25T07:57:46;2.83;;;1.08;;
40052;SDS011;25758;48.200;16.338;2023-04-25T08:00:11;2.45;;;1.20;;
40052;SDS011;25758;48.200;16.338;2023-04-25T08:02:37;2.55;;;1.25;;
40052;SDS011;25758;48.200;16.338;2023-04-25T08:05:03;2.50;;;1.00;;
40052;SDS011;25758;48.200;16.338;2023-04-25T08:07:29;3.00;;;1.30;;
40052;SDS011;25758;48.200;16.338;2023-04-25T08:09:55;4.72;;;1.92;;
40052;SDS011;25758;48.200;16.338;2023-04-25T08:12:21;4.45;;;1.77;;
40052;SDS011;25758;48.200;16.338;2023-04-25T08:14:46;5.60;;;1.63;;
40052;SDS011;25758;48.200;16.338;2023-04-25T08:17:12;4.53;;;1.25;;
40052;SDS011;25758;48.200;16.338;2023-04-25T08:19:38;2.53;;;1.40;;
40052;SDS011;25758;48.200;16.338;2023-04-25T08:22:04;4.80;;;2.63;;
40052;SDS011;25758;48.200;16.338;2023-04-25T08:24:29;3.03;;;1.20;;
40052;SDS011;25758;48.200;16.338;2023-04-25T08:26:55;2.72;;;1.23;;
40052;SDS011;25758;48.200;16.338;2023-04-25T08:29:21;1.35;;;0.80;;
40052;SDS011;25758;48.200;16.338;2023-04-25T08:31:48;2.65;;;1.05;;
40052;SDS011;25758;48.200;16.338;2023-04-25T08:34:15;3.13;;;1.08;;
40052;SDS011;25758;48.200;16.338;2023-04-25T08:36:41;4.85;;;0.90;;
40052;SDS011;25758;48.200;16.338;2023-04-25T08:39:06;2.50;;;0.98;;
40052;SDS011;25758;48.200;16.338;2023-04-25T08:41:32;4.32;;;1.38;;
40052;SDS011;25758;48.200;16.338;2023-04-25T08:43:58;2.70;;;1.67;;
40052;SDS011;25758;48.200;16.338;2023-04-25T08:46:25;2.63;;;1.17;;
40052;SDS011;25758;48.200;16.338;2023-04-25T08:48:52;2.75;;;1.52;;
40052;SDS011;25758;48.200;16.338;2023-04-25T08:51:23;2.50;;;1.08;;
40052;SDS011;25758;48.200;16.338;2023-04-25T08:53:51;2.97;;;0.95;;
40052;SDS011;25758;48.200;16.338;2023-04-25T08:56:17;2.55;;;0.60;;
40052;SDS011;25758;48.200;16.338;2023-04-25T08:58:45;3.33;;;1.35;;
40052;SDS011;25758;48.200;16.338;2023-04-25T09:01:14;5.03;;;1.42;;
40052;SDS011;25758;48.200;16.338;2023-04-25T09:03:40;3.40;;;1.10;;
40052;SDS011;25758;48.200;16.338;2023-04-25T09:06:06;4.70;;;0.90;;
40052;SDS011;25758;48.200;16.338;2023-04-25T09:08:33;1.75;;;1.20;;
40052;SDS011;25758;48.200;16.338;2023-04-25T09:10:59;4.30;;;0.82;;
40052;SDS011;25758;48.200;16.338;2023-04-25T09:13:26;2.35;;;0.60;;
40052;SDS011;25758;48.200;16.338;2023-04-25T09:15:56;7.45;;;0.88;;
40052;SDS011;25758;48.200;16.338;2023-04-25T09:18:26;5.10;;;1.23;;
40052;SDS011;25758;48.200;16.338;2023-04-25T09:20:53;2.38;;;1.13;;
40052;SDS011;25758;48.200;16.338;2023-04-25T09:23:21;4.40;;;1.65;;
40052;SDS011;25758;48.200;16.338;2023-04-25T09:25:48;5.25;;;1.00;;
40052;SDS011;25758;48.200;16.338;2023-04-25T09:28:16;4.53;;;1.55;;
40052;SDS011;25758;48.200;16.338;2023-04-25T09:30:47;2.53;;;1.50;;
40052;SDS011;25758;48.200;16.338;2023-04-25T09:33:13;4.07;;;1.40;;
40052;SDS011;25758;48.200;16.338;2023-04-25T09:35:42;1.90;;;1.00;;
40052;SDS011;25758;48.200;16.338;2023-04-25T09:38:09;2.28;;;1.48;;
40052;SDS011;25758;48.200;16.338;2023-04-25T09:40:44;4.35;;;1.77;;
40052;SDS011;25758;48.200;16.338;2023-04-25T09:43:23;3.72;;;2.17;;
40052;SDS011;25758;48.200;16.338;2023-04-25T09:45:50;4.53;;;1.75;;
40052;SDS011;25758;48.200;16.338;2023-04-25T09:48:21;3.60;;;2.03;;
40052;SDS011;25758;48.200;16.338;2023-04-25T09:53:41;2.25;;;0.50;;
40052;SDS011;25758;48.200;16.338;2023-04-25T09:56:09;1.52;;;0.32;;
40052;SDS011;25758;48.200;16.338;2023-04-25T09:58:36;2.03;;;0.30;;
40052;SDS011;25758;48.200;16.338;2023-04-25T10:01:07;0.77;;;0.30;;
40052;SDS011;25758;48.200;16.338;2023-04-25T10:03:36;1.50;;;0.47;;
40052;SDS011;25758;48.200;16.338;2023-04-25T10:06:08;2.85;;;0.43;;
40052;SDS011;25758;48.200;16.338;2023-04-25T10:08:37;1.58;;;0.50;;
40052;SDS011;25758;48.200;16.338;2023-04-25T10:11:04;1.42;;;0.70;;
40052;SDS011;25758;48.200;16.338;2023-04-25T10:13:32;0.95;;;0.45;;
40052;SDS011;25758;48.200;16.338;2023-04-25T10:15:59;1.33;;;0.30;;
40052;SDS011;25758;48.200;16.338;2023-04-25T10:18:26;1.52;;;0.50;;
40052;SDS011;25758;48.200;16.338;2023-04-25T10:20:56;3.67;;;1.50;;
40052;SDS011;25758;48.200;16.338;2023-04-25T10:23:26;2.58;;;0.40;;
40052;SDS011;25758;48.200;16.338;2023-04-25T10:25:54;1.38;;;0.40;;
40052;SDS011;25758;48.200;16.338;2023-04-25T10:28:20;0.80;;;0.25;;
40052;SDS011;25758;48.200;16.338;2023-04-25T10:33:34;4.85;;;0.38;;
40052;SDS011;25758;48.200;16.338;2023-04-25T10:36:13;1.65;;;0.35;;
40052;SDS011;25758;48.200;16.338;2023-04-25T10:38:43;1.63;;;0.45;;
40052;SDS011;25758;48.200;16.338;2023-04-25T10:41:11;2.85;;;0.30;;
40052;SDS011;25758;48.200;16.338;2023-04-25T10:43:38;4.22;;;1.58;;
40052;SDS011;25758;48.200;16.338;2023-04-25T10:46:39;1.27;;;0.55;;
40052;SDS011;25758;48.200;16.338;2023-04-25T10:49:00;3.30;;;1.40;;
40052;SDS011;25758;48.200;16.338;2023-04-25T10:51:28;3.38;;;1.15;;
40052;SDS011;25758;48.200;16.338;2023-04-25T10:53:58;2.08;;;0.63;;
40052;SDS011;25758;48.200;16.338;2023-04-25T10:56:38;2.15;;;0.93;;
40052;SDS011;25758;48.200;16.338;2023-04-25T11:01:37;0.70;;;0.30;;
40052;SDS011;25758;48.200;16.338;2023-04-25T11:04:04;1.85;;;0.40;;
40052;SDS011;25758;48.200;16.338;2023-04-25T11:09:25;3.05;;;0.40;;
40052;SDS011;25758;48.200;16.338;2023-04-25T11:11:55;2.88;;;0.52;;
40052;SDS011;25758;48.200;16.338;2023-04-25T11:14:24;1.10;;;0.40;;
40052;SDS011;25758;48.200;16.338;2023-04-25T11:16:56;1.58;;;0.40;;
40052;SDS011;25758;48.200;16.338;2023-04-25T11:19:23;1.75;;;0.35;;
40052;SDS011;25758;48.200;16.338;2023-04-25T11:21:50;3.40;;;0.60;;
40052;SDS011;25758;48.200;16.338;2023-04-25T11:24:16;1.45;;;0.35;;
40052;SDS011;25758;48.200;16.338;2023-04-25T11:26:42;2.58;;;1.10;;
40052;SDS011;25758;48.200;16.338;2023-04-25T11:29:11;3.42;;;1.40;;
40052;SDS011;25758;48.200;16.338;2023-04-25T11:31:37;4.85;;;1.15;;
40052;SDS011;25758;48.200;16.338;2023-04-25T11:34:02;3.15;;;0.40;;
40052;SDS011;25758;48.200;16.338;2023-04-25T11:36:28;7.88;;;1.00;;
40052;SDS011;25758;48.200;16.338;2023-04-25T11:38:54;8.85;;;1.60;;
40052;SDS011;25758;48.200;16.338;2023-04-25T11:41:19;3.38;;;0.80;;
40052;SDS011;25758;48.200;16.338;2023-04-25T11:43:47;2.22;;;0.60;;
40052;SDS011;25758;48.200;16.338;2023-04-25T11:46:13;1.23;;;0.50;;
40052;SDS011;25758;48.200;16.338;2023-04-25T11:48:40;1.40;;;0.50;;
40052;SDS011;25758;48.200;16.338;2023-04-25T11:51:06;1.13;;;0.40;;
40052;SDS011;25758;48.200;16.338;2023-04-25T11:53:32;1.33;;;0.45;;
40052;SDS011;25758;48.200;16.338;2023-04-25T11:55:58;2.20;;;0.50;;
40052;SDS011;25758;48.200;16.338;2023-04-25T11:58:23;3.88;;;0.73;;
40052;SDS011;25758;48.200;16.338;2023-04-25T12:00:50;2.65;;;0.65;;
40052;SDS011;25758;48.200;16.338;2023-04-25T12:03:17;1.60;;;0.50;;
40052;SDS011;25758;48.200;16.338;2023-04-25T12:05:43;2.75;;;0.77;;
40052;SDS011;25758;48.200;16.338;2023-04-25T12:08:13;4.90;;;0.68;;
40052;SDS011;25758;48.200;16.338;2023-04-25T12:10:40;11.82;;;6.13;;
40052;SDS011;25758;48.200;16.338;2023-04-25T12:13:21;8.50;;;5.18;;
40052;SDS011;25758;48.200;16.338;2023-04-25T12:15:48;22.80;;;11.98;;
40052;SDS011;25758;48.200;16.338;2023-04-25T12:18:14;3.03;;;0.70;;
40052;SDS011;25758;48.200;16.338;2023-04-25T12:20:39;1.55;;;0.40;;
40052;SDS011;25758;48.200;16.338;2023-04-25T12:23:07;1.02;;;0.30;;
40052;SDS011;25758;48.200;16.338;2023-04-25T12:28:09;1.35;;;0.52;;
40052;SDS011;25758;48.200;16.338;2023-04-25T12:33:30;1.63;;;0.47;;
40052;SDS011;25758;48.200;16.338;2023-04-25T12:36:01;1.63;;;0.43;;
40052;SDS011;25758;48.200;16.338;2023-04-25T12:38:38;2.67;;;0.47;;
40052;SDS011;25758;48.200;16.338;2023-04-25T12:41:04;1.85;;;0.70;;
40052;SDS011;25758;48.200;16.338;2023-04-25T12:43:30;3.60;;;0.55;;
40052;SDS011;25758;48.200;16.338;2023-04-25T12:45:56;1.55;;;0.40;;
40052;SDS011;25758;48.200;16.338;2023-04-25T12:48:22;1.52;;;0.38;;
40052;SDS011;25758;48.200;16.338;2023-04-25T12:50:48;2.05;;;0.20;;
40052;SDS011;25758;48.200;16.338;2023-04-25T12:53:16;2.90;;;0.10;;
40052;SDS011;25758;48.200;16.338;2023-04-25T12:55:43;1.27;;;0.20;;
40052;SDS011;25758;48.200;16.338;2023-04-25T12:58:11;0.82;;;0.20;;
40052;SDS011;25758;48.200;16.338;2023-04-25T13:00:37;2.38;;;0.55;;
40052;SDS011;25758;48.200;16.338;2023-04-25T13:03:02;3.78;;;0.20;;
40052;SDS011;25758;48.200;16.338;2023-04-25T13:05:29;0.80;;;0.20;;
40052;SDS011;25758;48.200;16.338;2023-04-25T13:07:55;2.45;;;0.10;;
40052;SDS011;25758;48.200;16.338;2023-04-25T13:10:21;1.27;;;0.30;;
40052;SDS011;25758;48.200;16.338;2023-04-25T13:12:47;3.03;;;0.60;;
40052;SDS011;25758;48.200;16.338;2023-04-25T13:15:13;2.50;;;0.30;;
40052;SDS011;25758;48.200;16.338;2023-04-25T13:17:40;0.55;;;0.20;;
40052;SDS011;25758;48.200;16.338;2023-04-25T13:20:07;2.70;;;0.20;;
40052;SDS011;25758;48.200;16.338;2023-04-25T13:22:40;1.20;;;0.20;;
40052;SDS011;25758;48.200;16.338;2023-04-25T13:25:07;1.13;;;0.20;;
40052;SDS011;25758;48.200;16.338;2023-04-25T13:27:33;7.75;;;0.43;;
40052;SDS011;25758;48.200;16.338;2023-04-25T13:30:02;2.70;;;0.25;;
40052;SDS011;25758;48.200;16.338;2023-04-25T13:32:32;1.15;;;0.30;;
40052;SDS011;25758;48.200;16.338;2023-04-25T13:34:59;2.58;;;0.40;;
40052;SDS011;25758;48.200;16.338;2023-04-25T13:37:24;0.85;;;0.13;;
40052;SDS011;25758;48.200;16.338;2023-04-25T13:39:50;0.65;;;0.30;;
40052;SDS011;25758;48.200;16.338;2023-04-25T13:42:16;3.80;;;0.30;;
40052;SDS011;25758;48.200;16.338;2023-04-25T13:44:41;0.70;;;0.20;;
40052;SDS011;25758;48.200;16.338;2023-04-25T13:47:07;1.20;;;0.28;;
40052;SDS011;25758;48.200;16.338;2023-04-25T13:49:33;1.13;;;0.10;;
40052;SDS011;25758;48.200;16.338;2023-04-25T13:51:58;2.42;;;0.10;;
40052;SDS011;25758;48.200;16.338;2023-04-25T13:54:24;1.67;;;0.40;;
40052;SDS011;25758;48.200;16.338;2023-04-25T13:56:49;1.85;;;0.25;;
40052;SDS011;25758;48.200;16.338;2023-04-25T13:59:15;0.85;;;0.30;;
40052;SDS011;25758;48.200;16.338;2023-04-25T14:01:41;1.33;;;0.40;;
40052;SDS011;25758;48.200;16.338;2023-04-25T14:04:07;1.55;;;0.20;;
40052;SDS011;25758;48.200;16.338;2023-04-25T14:06:33;0.68;;;0.15;;
40052;SDS011;25758;48.200;16.338;2023-04-25T14:09:00;1.23;;;0.15;;
40052;SDS011;25758;48.200;16.338;2023-04-25T14:11:26;1.38;;;0.17;;
40052;SDS011;25758;48.200;16.338;2023-04-25T14:13:52;0.93;;;0.10;;
40052;SDS011;25758;48.200;16.338;2023-04-25T14:16:17;0.63;;;0.10;;
40052;SDS011;25758;48.200;16.338;2023-04-25T14:18:43;0.60;;;0.10;;
40052;SDS011;25758;48.200;16.338;2023-04-25T14:21:09;0.82;;;0.30;;
40052;SDS011;25758;48.200;16.338;2023-04-25T14:23:35;0.38;;;0.10;;
40052;SDS011;25758;48.200;16.338;2023-04-25T14:26:01;4.00;;;0.20;;
40052;SDS011;25758;48.200;16.338;2023-04-25T14:28:27;1.48;;;0.20;;
40052;SDS011;25758;48.200;16.338;2023-04-25T14:30:52;0.75;;;0.10;;
40052;SDS011;25758;48.200;16.338;2023-04-25T14:33:18;0.68;;;0.17;;
40052;SDS011;25758;48.200;16.338;2023-04-25T14:35:43;0.80;;;0.28;;
40052;SDS011;25758;48.200;16.338;2023-04-25T14:38:09;0.93;;;0.20;;
40052;SDS011;25758;48.200;16.338;2023-04-25T14:40:35;0.60;;;0.10;;
40052;SDS011;25758;48.200;16.338;2023-04-25T14:43:01;3.30;;;0.30;;
40052;SDS011;25758;48.200;16.338;2023-04-25T14:45:27;2.90;;;0.30;;